createdAt,value
2022-12-18T00:01:46.315Z,15.35
2022-12-18T00:04:48.416Z,15.16
2022-12-18T00:07:50.573Z,15.07
2022-12-18T00:10:52.624Z,14.93
2022-12-18T00:13:57.562Z,14.77
2022-12-18T00:17:01.837Z,14.71
2022-12-18T00:20:04.694Z,14.74
2022-12-18T00:23:08.028Z,14.79
2022-12-18T00:26:19.882Z,14.69
2022-12-18T00:29:21.811Z,14.60
2022-12-18T00:32:24.127Z,14.51
2022-12-18T00:35:26.260Z,14.54
2022-12-18T00:38:30.010Z,14.55
2022-12-18T00:41:50.880Z,14.56
2022-12-18T00:44:53.021Z,14.49
2022-12-18T00:47:55.739Z,14.40
2022-12-18T00:50:58.818Z,14.31
2022-12-18T00:54:01.033Z,14.26
2022-12-18T00:57:03.829Z,14.28
2022-12-18T01:00:09.013Z,14.17
2022-12-18T01:03:15.147Z,14.04
2022-12-18T01:06:19.641Z,13.96
2022-12-18T01:09:22.288Z,14.01
2022-12-18T01:12:24.475Z,14.01
2022-12-18T01:15:27.162Z,13.99
2022-12-18T01:18:29.279Z,13.76
2022-12-18T01:21:34.196Z,13.67
2022-12-18T01:24:39.640Z,13.49
2022-12-18T01:27:41.798Z,13.46
2022-12-18T01:30:43.771Z,13.64
2022-12-18T01:33:46.756Z,13.57
2022-12-18T01:36:48.803Z,13.49
2022-12-18T01:39:51.216Z,13.64
2022-12-18T01:42:54.533Z,13.46
2022-12-18T01:46:00.336Z,13.54
2022-12-18T01:49:02.928Z,13.54
2022-12-18T01:52:05.016Z,13.63
2022-12-18T01:55:09.409Z,13.65
2022-12-18T01:58:11.526Z,13.72
2022-12-18T02:01:15.139Z,13.60
2022-12-18T02:04:21.423Z,13.68
2022-12-18T02:07:33.119Z,13.64
2022-12-18T02:10:54.551Z,13.60
2022-12-18T02:14:31.509Z,13.60
2022-12-18T02:17:48.538Z,13.55
2022-12-18T02:21:16.382Z,13.50
2022-12-18T02:24:41.357Z,13.43
2022-12-18T02:27:47.651Z,13.38
2022-12-18T02:30:54.560Z,13.47
2022-12-18T02:34:02.629Z,13.39
2022-12-18T02:37:13.490Z,13.39
2022-12-18T02:40:18.317Z,13.65
2022-12-18T02:43:20.746Z,13.59
2022-12-18T02:46:42.875Z,13.64
2022-12-18T02:50:11.316Z,13.71
2022-12-18T02:53:24.879Z,13.63
2022-12-18T02:56:36.286Z,13.73
2022-12-18T02:59:48.928Z,13.68
2022-12-18T03:03:03.327Z,13.61
2022-12-18T03:06:38.590Z,13.64
2022-12-18T03:09:44.910Z,13.51
2022-12-18T03:12:55.814Z,13.45
2022-12-18T03:16:00.810Z,13.52
2022-12-18T03:19:07.964Z,13.33
2022-12-18T03:22:11.801Z,13.49
2022-12-18T03:25:22.634Z,13.58
2022-12-18T03:28:35.092Z,13.58
2022-12-18T03:31:44.129Z,13.57
2022-12-18T03:34:50.661Z,13.58
2022-12-18T03:37:55.740Z,13.49
2022-12-18T03:41:08.829Z,13.48
2022-12-18T03:44:38.605Z,13.43
2022-12-18T03:48:02.743Z,13.47
2022-12-18T03:51:23.708Z,13.33
2022-12-18T03:54:28.463Z,13.23
2022-12-18T03:57:39.896Z,13.26
2022-12-18T04:00:44.756Z,13.26
2022-12-18T04:03:51.287Z,13.36
2022-12-18T04:06:56.481Z,13.24
2022-12-18T04:10:02.078Z,13.28
2022-12-18T04:13:06.282Z,13.24
2022-12-18T04:16:10.655Z,13.31
2022-12-18T04:19:16.757Z,13.39
2022-12-18T04:22:21.705Z,13.28
2022-12-18T04:25:29.394Z,13.40
2022-12-18T04:28:41.608Z,13.40
2022-12-18T04:31:44.648Z,13.27
2022-12-18T04:34:47.390Z,13.11
2022-12-18T04:37:49.510Z,13.18
2022-12-18T04:40:51.989Z,13.27
2022-12-18T04:44:00.490Z,13.25
2022-12-18T04:47:02.674Z,13.08
2022-12-18T04:50:05.371Z,13.23
2022-12-18T04:53:07.758Z,13.10
2022-12-18T04:56:12.903Z,13.11
2022-12-18T04:59:14.946Z,13.21
2022-12-18T05:02:17.190Z,12.87
2022-12-18T05:05:19.255Z,13.21
2022-12-18T05:08:21.497Z,13.15
2022-12-18T05:11:23.699Z,13.12
2022-12-18T05:14:26.048Z,13.06
2022-12-18T05:17:28.062Z,13.22
2022-12-18T05:20:30.224Z,12.99
2022-12-18T05:23:37.602Z,13.09
2022-12-18T05:26:40.180Z,13.21
2022-12-18T05:29:43.699Z,13.11
2022-12-18T05:32:45.767Z,13.07
2022-12-18T05:35:56.181Z,13.09
2022-12-18T05:38:58.255Z,12.98
2022-12-18T05:42:00.368Z,12.90
2022-12-18T05:45:02.471Z,13.17
2022-12-18T05:48:05.285Z,13.46
2022-12-18T05:51:15.640Z,13.24
2022-12-18T05:54:17.723Z,13.10
2022-12-18T05:57:19.778Z,13.43
2022-12-18T06:00:21.846Z,13.50
2022-12-18T06:03:26.837Z,13.66
2022-12-18T06:06:31.361Z,13.55
2022-12-18T06:09:33.609Z,13.39
2022-12-18T06:12:35.801Z,13.48
2022-12-18T06:15:38.649Z,13.58
2022-12-18T06:18:40.710Z,13.69
2022-12-18T06:21:42.951Z,13.58
2022-12-18T06:24:44.907Z,13.80
2022-12-18T06:27:49.183Z,13.54
2022-12-18T06:30:51.652Z,13.30
2022-12-18T06:33:53.898Z,13.14
2022-12-18T06:36:56.056Z,12.77
2022-12-18T06:39:58.264Z,12.83
2022-12-18T06:43:00.420Z,12.59
2022-12-18T06:46:03.229Z,12.57
2022-12-18T06:49:05.453Z,13.26
2022-12-18T06:52:07.654Z,13.47
2022-12-18T06:55:09.761Z,13.87
2022-12-18T06:58:11.710Z,14.80
2022-12-18T07:01:15.105Z,14.94
2022-12-18T07:04:17.251Z,14.71
2022-12-18T07:07:20.742Z,14.83
2022-12-18T07:10:25.962Z,14.98
2022-12-18T07:13:28.356Z,14.88
2022-12-18T07:16:30.662Z,15.55
2022-12-18T07:19:37.396Z,15.70
2022-12-18T07:22:41.421Z,15.93
2022-12-18T07:25:43.884Z,17.43
2022-12-18T07:28:47.717Z,18.94
2022-12-18T07:31:52.232Z,17.77
2022-12-18T07:34:54.246Z,16.96
2022-12-18T07:37:56.392Z,16.58
2022-12-18T07:41:07.446Z,15.97
2022-12-18T07:44:13.673Z,17.30
2022-12-18T07:47:20.999Z,16.53
2022-12-18T07:50:27.447Z,16.41
2022-12-18T07:53:37.177Z,16.45
2022-12-18T07:56:39.752Z,17.26
2022-12-18T07:59:41.887Z,16.81
2022-12-18T08:02:44.229Z,16.56
2022-12-18T08:05:49.423Z,16.86
2022-12-18T08:08:55.677Z,17.30
2022-12-18T08:11:59.713Z,17.23
2022-12-18T08:15:02.073Z,16.92
2022-12-18T08:18:05.983Z,17.76
2022-12-18T08:21:17.390Z,17.00
2022-12-18T08:24:20.852Z,16.96
2022-12-18T08:27:30.415Z,16.39
2022-12-18T08:30:32.728Z,16.36
2022-12-18T08:33:36.055Z,16.06
2022-12-18T08:36:38.184Z,15.87
2022-12-18T08:39:40.291Z,15.86
2022-12-18T08:43:02.969Z,15.60
2022-12-18T08:46:09.292Z,15.54
2022-12-18T08:49:13.764Z,15.00
2022-12-18T08:52:16.273Z,14.86
2022-12-18T08:55:20.279Z,15.11
2022-12-18T08:58:25.657Z,15.31
2022-12-18T09:01:29.690Z,15.19
2022-12-18T09:04:31.917Z,15.09
2022-12-18T09:07:41.786Z,15.13
2022-12-18T09:10:49.083Z,14.95
2022-12-18T09:13:51.291Z,14.98
2022-12-18T09:16:53.386Z,14.85
2022-12-18T09:19:55.702Z,14.92
2022-12-18T09:23:09.910Z,14.85
2022-12-18T09:26:13.412Z,14.87
2022-12-18T09:29:18.466Z,14.59
2022-12-18T09:32:22.733Z,13.76
2022-12-18T09:35:25.738Z,14.19
2022-12-18T09:38:27.818Z,15.54
2022-12-18T09:41:52.025Z,16.31
2022-12-18T09:44:55.551Z,16.82
2022-12-18T09:48:05.148Z,16.55
2022-12-18T09:51:17.295Z,18.36
2022-12-18T09:54:25.714Z,19.68
2022-12-18T09:57:35.827Z,18.39
2022-12-18T10:04:25.681Z,19.08
2022-12-18T10:07:49.328Z,19.24
2022-12-18T10:11:17.139Z,19.66
2022-12-18T10:14:45.538Z,19.65
2022-12-18T10:18:18.776Z,19.15
2022-12-18T10:21:42.767Z,18.13
2022-12-18T10:24:56.616Z,17.62
2022-12-18T10:28:14.613Z,17.24
2022-12-18T10:31:20.397Z,16.94
2022-12-18T10:34:26.045Z,16.66
2022-12-18T10:37:31.042Z,16.34
2022-12-18T10:41:12.615Z,15.92
2022-12-18T10:44:37.738Z,15.76
2022-12-18T10:47:50.917Z,16.37
2022-12-18T10:51:12.896Z,16.07
2022-12-18T10:54:24.326Z,16.31
2022-12-18T10:57:42.999Z,15.35
2022-12-18T11:00:45.893Z,15.49
2022-12-18T11:04:02.664Z,15.18
2022-12-18T11:07:10.015Z,15.24
2022-12-18T11:10:19.913Z,15.38
2022-12-18T11:13:25.107Z,17.72
2022-12-18T11:16:29.032Z,17.49
2022-12-18T11:19:40.041Z,16.26
2022-12-18T11:22:56.869Z,15.66
2022-12-18T11:26:02.747Z,15.70
2022-12-18T11:29:18.223Z,16.29
2022-12-18T11:32:33.776Z,17.13
2022-12-18T11:35:44.645Z,16.64
2022-12-18T11:38:48.240Z,16.39
2022-12-18T11:42:12.789Z,16.65
2022-12-18T11:45:15.505Z,16.41
2022-12-18T11:48:33.635Z,16.65
2022-12-18T11:51:46.702Z,16.58
2022-12-18T11:54:52.871Z,16.75
2022-12-18T11:58:04.248Z,16.33
2022-12-18T12:01:27.454Z,15.17
2022-12-18T12:04:44.901Z,13.87
2022-12-18T12:08:07.514Z,13.78
2022-12-18T12:11:20.370Z,13.43
2022-12-18T12:14:40.463Z,13.29
2022-12-18T12:17:45.928Z,13.55
2022-12-18T12:20:47.993Z,13.47
2022-12-18T12:24:25.553Z,13.24
2022-12-18T12:27:38.398Z,13.22
2022-12-18T12:31:00.871Z,13.24
2022-12-18T12:34:17.375Z,13.19
2022-12-18T12:37:47.360Z,13.12
2022-12-18T12:41:02.437Z,13.35
2022-12-18T12:44:11.618Z,13.13
2022-12-18T12:47:21.842Z,13.14
2022-12-18T12:50:24.856Z,13.19
2022-12-18T12:53:37.483Z,13.07
2022-12-18T12:56:49.599Z,13.12
2022-12-18T13:00:07.678Z,13.14
2022-12-18T13:03:22.301Z,13.32
2022-12-18T13:06:51.948Z,13.16
2022-12-18T13:10:17.201Z,13.06
2022-12-18T13:13:23.249Z,13.15
2022-12-18T13:16:28.868Z,13.63
2022-12-18T13:19:32.433Z,13.17
2022-12-18T13:22:43.134Z,13.31
2022-12-18T13:25:45.243Z,12.82
2022-12-18T13:28:47.375Z,12.92
2022-12-18T13:31:49.457Z,12.92
2022-12-18T13:35:19.705Z,12.76
2022-12-18T13:38:33.731Z,12.89
2022-12-18T13:41:35.823Z,12.81
2022-12-18T13:44:43.103Z,12.84
2022-12-18T13:47:45.506Z,12.89
2022-12-18T13:51:01.799Z,12.89
2022-12-18T13:54:21.311Z,12.72
2022-12-18T13:57:32.895Z,12.85
2022-12-18T14:00:35.735Z,12.80
2022-12-18T14:03:38.978Z,12.77
2022-12-18T14:06:41.588Z,12.88
2022-12-18T14:09:50.109Z,12.92
2022-12-18T14:13:00.365Z,12.79
2022-12-18T14:16:08.681Z,12.89
2022-12-18T14:19:16.977Z,12.99
2022-12-18T14:22:31.931Z,12.99
2022-12-18T14:25:36.439Z,12.98
2022-12-18T14:28:45.397Z,12.98
2022-12-18T14:31:47.996Z,12.96
2022-12-18T14:34:52.958Z,13.63
2022-12-18T14:37:55.368Z,14.16
2022-12-18T14:41:20.694Z,14.09
2022-12-18T14:44:22.822Z,13.43
2022-12-18T14:47:24.902Z,13.17
2022-12-18T14:50:27.661Z,13.73
2022-12-18T14:53:54.420Z,13.10
2022-12-18T14:57:24.454Z,12.87
2022-12-18T15:00:27.282Z,13.37
2022-12-18T15:03:29.612Z,13.44
2022-12-18T15:06:31.727Z,13.60
2022-12-18T15:09:34.145Z,13.68
2022-12-18T15:12:42.724Z,13.37
2022-12-18T15:15:48.669Z,12.91
2022-12-18T15:18:50.869Z,13.13
2022-12-18T15:21:53.001Z,14.61
2022-12-18T15:25:00.047Z,15.79
2022-12-18T15:28:02.341Z,16.16
2022-12-18T15:31:24.230Z,17.28
2022-12-18T15:34:30.939Z,18.13
2022-12-18T15:37:32.956Z,18.99
2022-12-18T15:40:34.979Z,19.24
2022-12-18T15:43:39.597Z,20.61
2022-12-18T15:46:41.913Z,20.79
2022-12-18T15:49:44.092Z,19.78
2022-12-18T15:52:48.848Z,20.61
2022-12-18T15:56:09.503Z,20.92
2022-12-18T15:59:15.757Z,19.78
2022-12-18T16:02:20.225Z,20.12
2022-12-18T16:05:24.416Z,20.42
2022-12-18T16:08:26.487Z,20.05
2022-12-18T16:11:39.819Z,20.48
2022-12-18T16:14:42.289Z,20.91
2022-12-18T16:17:45.419Z,21.01
2022-12-18T16:20:49.949Z,21.00
2022-12-18T16:23:52.059Z,20.09
2022-12-18T16:26:55.850Z,18.22
2022-12-18T16:29:59.735Z,17.98
2022-12-18T16:33:02.756Z,17.08
2022-12-18T16:36:04.974Z,16.91
2022-12-18T16:39:07.271Z,16.82
2022-12-18T16:42:20.790Z,16.24
2022-12-18T16:45:24.593Z,16.03
2022-12-18T16:48:28.177Z,16.09
2022-12-18T16:51:31.733Z,16.04
2022-12-18T16:54:39.547Z,15.91
2022-12-18T16:57:41.568Z,15.39
2022-12-18T17:00:50.973Z,15.42
2022-12-18T17:03:58.677Z,15.31
2022-12-18T17:07:00.864Z,15.30
2022-12-18T17:10:03.277Z,15.14
2022-12-18T17:13:05.842Z,14.82
2022-12-18T17:16:12.395Z,14.81
2022-12-18T17:19:17.666Z,14.92
2022-12-18T17:22:21.453Z,14.70
2022-12-18T17:25:23.557Z,14.57
2022-12-18T17:28:28.281Z,14.70
2022-12-18T17:31:35.289Z,14.16
2022-12-18T17:34:37.898Z,14.67
2022-12-18T17:37:39.970Z,14.66
2022-12-18T17:40:46.233Z,14.75
2022-12-18T17:44:07.762Z,14.78
2022-12-18T17:47:12.254Z,14.55
2022-12-18T17:50:16.336Z,14.48
2022-12-18T17:53:18.658Z,14.26
2022-12-18T17:56:23.497Z,14.45
2022-12-18T17:59:25.802Z,14.23
2022-12-18T18:02:29.497Z,14.08
2022-12-18T18:05:32.324Z,13.95
2022-12-18T18:08:35.641Z,13.78
2022-12-18T18:11:58.208Z,13.78
2022-12-18T18:15:00.336Z,13.57
2022-12-18T18:18:05.902Z,13.60
2022-12-18T18:21:09.063Z,13.53
2022-12-18T18:24:17.770Z,13.45
2022-12-18T18:27:20.128Z,13.04
2022-12-18T18:30:22.630Z,12.81
2022-12-18T18:33:24.850Z,12.96
2022-12-18T18:36:27.578Z,12.87
2022-12-18T18:39:29.774Z,12.93
2022-12-18T18:42:32.834Z,13.01
2022-12-18T18:45:34.935Z,12.87
2022-12-18T18:48:37.868Z,12.98
2022-12-18T18:51:42.521Z,12.96
2022-12-18T18:55:11.165Z,13.02
2022-12-18T18:58:06.849Z,12.98
2022-12-18T19:01:13.225Z,12.75
2022-12-18T19:04:15.391Z,12.62
2022-12-18T19:07:26.554Z,12.38
2022-12-18T19:10:33.824Z,12.49
2022-12-18T19:13:37.128Z,12.27
2022-12-18T19:16:44.580Z,12.15
2022-12-18T19:19:48.162Z,12.22
2022-12-18T19:22:55.025Z,12.62
2022-12-18T19:26:28.831Z,13.40
2022-12-18T19:29:29.728Z,13.43
2022-12-18T19:32:31.965Z,13.32
2022-12-18T19:35:34.120Z,13.63
2022-12-18T19:38:36.437Z,14.11
2022-12-18T19:41:39.070Z,14.54
2022-12-18T19:44:41.891Z,14.52
2022-12-18T19:47:44.421Z,14.94
2022-12-18T19:50:50.633Z,15.09
2022-12-18T19:53:58.967Z,15.44
2022-12-18T19:57:03.083Z,15.38
2022-12-18T20:00:05.801Z,15.27
2022-12-18T20:03:24.267Z,15.20
2022-12-18T20:06:51.731Z,15.29
2022-12-18T20:13:32.134Z,15.25
2022-12-18T20:17:23.233Z,15.04
2022-12-18T20:20:26.002Z,14.94
2022-12-18T20:23:28.225Z,14.79
2022-12-18T20:26:31.038Z,14.98
2022-12-18T20:29:33.827Z,15.96
2022-12-18T20:32:37.239Z,16.22
2022-12-18T20:35:39.499Z,15.74
2022-12-18T20:38:42.192Z,15.36
2022-12-18T20:41:46.405Z,15.18
2022-12-18T20:44:50.972Z,15.21
2022-12-18T20:47:56.097Z,14.98
2022-12-18T20:51:06.691Z,14.88
2022-12-18T20:54:11.942Z,14.79
2022-12-18T20:57:17.542Z,14.66
2022-12-18T21:00:21.356Z,14.42
2022-12-18T21:03:27.119Z,14.37
2022-12-18T21:06:29.660Z,14.52
2022-12-18T21:09:38.001Z,14.58
2022-12-18T21:13:00.112Z,14.35
2022-12-18T21:16:07.922Z,14.08
2022-12-18T21:19:25.815Z,13.95
2022-12-18T21:22:30.593Z,13.86
2022-12-18T21:25:33.595Z,13.99
2022-12-18T21:28:36.162Z,14.04
2022-12-18T21:31:39.297Z,13.92
2022-12-18T21:34:47.861Z,14.01
2022-12-18T21:37:50.437Z,14.14
2022-12-18T21:40:55.496Z,14.09
2022-12-18T21:44:15.389Z,13.65
2022-12-18T21:47:22.272Z,13.88
2022-12-18T21:50:25.786Z,14.14
2022-12-18T21:53:28.666Z,14.30
2022-12-18T21:56:56.992Z,14.25
2022-12-18T21:59:59.099Z,13.91
2022-12-18T22:03:17.930Z,13.95
2022-12-18T22:06:22.825Z,13.88
2022-12-18T22:09:25.742Z,13.81
2022-12-18T22:12:43.349Z,13.91
2022-12-18T22:15:47.255Z,14.03
2022-12-18T22:18:50.008Z,13.99
2022-12-18T22:21:53.088Z,13.81
2022-12-18T22:24:55.816Z,13.48
2022-12-18T22:28:25.224Z,13.29
2022-12-18T22:31:27.331Z,13.03
2022-12-18T22:34:34.224Z,12.93
2022-12-18T22:37:38.568Z,12.86
2022-12-18T22:40:41.097Z,13.10
2022-12-18T22:43:43.336Z,12.90
2022-12-18T22:46:53.065Z,13.00
2022-12-18T22:50:07.018Z,12.79
2022-12-18T22:53:09.422Z,12.65
2022-12-18T22:56:20.126Z,12.56
2022-12-18T22:59:24.071Z,12.57
2022-12-18T23:02:28.999Z,12.67
2022-12-18T23:05:31.533Z,12.46
2022-12-18T23:08:34.872Z,12.57
2022-12-18T23:11:37.507Z,12.39
2022-12-18T23:14:39.998Z,12.27
2022-12-18T23:17:44.472Z,12.12
2022-12-18T23:20:48.687Z,11.97
2022-12-18T23:23:51.008Z,12.16
2022-12-18T23:26:53.280Z,12.13
2022-12-18T23:29:57.146Z,12.14
2022-12-18T23:33:01.231Z,12.09
2022-12-18T23:36:04.831Z,12.12
2022-12-18T23:39:08.699Z,12.16
2022-12-18T23:42:12.898Z,12.05
2022-12-18T23:45:18.135Z,12.11
2022-12-18T23:48:22.107Z,12.16
2022-12-18T23:51:28.476Z,12.23
2022-12-18T23:54:33.514Z,12.13
2022-12-18T23:57:36.255Z,12.13
